sensor_id;sensor_type;location;lat;lon;timestamp;P1;durP1;ratioP1;P2;durP2;ratioP2
22248;SDS011;67538;52.180;5.646;2023-11-18T00:00:23;67.13;;;28.60;;
22248;SDS011;67538;52.180;5.646;2023-11-18T00:02:50;105.30;;;34.80;;
22248;SDS011;67538;52.180;5.646;2023-11-18T00:05:18;243.30;;;74.23;;
22248;SDS011;67538;52.180;5.646;2023-11-18T00:07:46;485.97;;;140.73;;
22248;SDS011;67538;52.180;5.646;2023-11-18T00:10:13;245.37;;;78.27;;
22248;SDS011;67538;52.180;5.646;2023-11-18T00:12:40;92.73;;;40.37;;
22248;SDS011;67538;52.180;5.646;2023-11-18T00:15:07;95.73;;;39.17;;
22248;SDS011;67538;52.180;5.646;2023-11-18T00:17:36;210.70;;;65.23;;
22248;SDS011;67538;52.180;5.646;2023-11-18T00:20:04;344.47;;;108.30;;
22248;SDS011;67538;52.180;5.646;2023-11-18T00:22:36;176.97;;;62.47;;
22248;SDS011;67538;52.180;5.646;2023-11-18T00:25:03;334.77;;;109.07;;
22248;SDS011;67538;52.180;5.646;2023-11-18T00:27:32;187.90;;;68.60;;
22248;SDS011;67538;52.180;5.646;2023-11-18T00:30:01;206.00;;;78.30;;
22248;SDS011;67538;52.180;5.646;2023-11-18T00:32:30;275.00;;;97.43;;
22248;SDS011;67538;52.180;5.646;2023-11-18T00:34:57;115.80;;;46.87;;
22248;SDS011;67538;52.180;5.646;2023-11-18T00:37:26;76.63;;;33.23;;
22248;SDS011;67538;52.180;5.646;2023-11-18T00:39:54;121.70;;;49.17;;
22248;SDS011;67538;52.180;5.646;2023-11-18T00:42:21;218.13;;;81.23;;
22248;SDS011;67538;52.180;5.646;2023-11-18T00:44:48;82.77;;;33.47;;
22248;SDS011;67538;52.180;5.646;2023-11-18T00:47:15;69.63;;;29.53;;
22248;SDS011;67538;52.180;5.646;2023-11-18T00:49:42;67.87;;;33.03;;
22248;SDS011;67538;52.180;5.646;2023-11-18T00:52:09;67.50;;;29.30;;
22248;SDS011;67538;52.180;5.646;2023-11-18T00:54:37;78.40;;;34.13;;
22248;SDS011;67538;52.180;5.646;2023-11-18T00:57:05;66.20;;;30.77;;
22248;SDS011;67538;52.180;5.646;2023-11-18T00:59:33;60.87;;;27.40;;
22248;SDS011;67538;52.180;5.646;2023-11-18T01:02:00;58.10;;;26.27;;
22248;SDS011;67538;52.180;5.646;2023-11-18T01:04:28;59.37;;;26.90;;
22248;SDS011;67538;52.180;5.646;2023-11-18T01:06:58;139.47;;;55.10;;
22248;SDS011;67538;52.180;5.646;2023-11-18T01:09:25;102.57;;;42.57;;
22248;SDS011;67538;52.180;5.646;2023-11-18T01:11:52;60.57;;;26.27;;
22248;SDS011;67538;52.180;5.646;2023-11-18T01:14:20;53.90;;;25.63;;
22248;SDS011;67538;52.180;5.646;2023-11-18T01:16:48;56.10;;;24.93;;
22248;SDS011;67538;52.180;5.646;2023-11-18T01:19:15;60.70;;;26.60;;
22248;SDS011;67538;52.180;5.646;2023-11-18T01:21:43;59.10;;;25.97;;
22248;SDS011;67538;52.180;5.646;2023-11-18T01:24:10;61.17;;;26.10;;
22248;SDS011;67538;52.180;5.646;2023-11-18T01:26:37;56.53;;;24.93;;
22248;SDS011;67538;52.180;5.646;2023-11-18T01:29:04;59.20;;;26.27;;
22248;SDS011;67538;52.180;5.646;2023-11-18T01:31:32;56.80;;;25.77;;
22248;SDS011;67538;52.180;5.646;2023-11-18T01:33:59;57.40;;;24.03;;
22248;SDS011;67538;52.180;5.646;2023-11-18T01:36:26;57.57;;;25.80;;
22248;SDS011;67538;52.180;5.646;2023-11-18T01:38:53;53.10;;;23.90;;
22248;SDS011;67538;52.180;5.646;2023-11-18T01:41:20;52.50;;;24.17;;
22248;SDS011;67538;52.180;5.646;2023-11-18T01:43:47;53.20;;;23.10;;
22248;SDS011;67538;52.180;5.646;2023-11-18T01:46:15;58.40;;;26.27;;
22248;SDS011;67538;52.180;5.646;2023-11-18T01:48:46;57.27;;;25.87;;
22248;SDS011;67538;52.180;5.646;2023-11-18T01:51:13;54.83;;;25.00;;
22248;SDS011;67538;52.180;5.646;2023-11-18T01:53:40;62.87;;;27.97;;
22248;SDS011;67538;52.180;5.646;2023-11-18T01:56:10;64.97;;;27.33;;
22248;SDS011;67538;52.180;5.646;2023-11-18T01:58:37;59.40;;;26.87;;
22248;SDS011;67538;52.180;5.646;2023-11-18T02:01:06;62.07;;;26.90;;
22248;SDS011;67538;52.180;5.646;2023-11-18T02:03:33;70.97;;;27.90;;
22248;SDS011;67538;52.180;5.646;2023-11-18T02:06:02;61.73;;;28.03;;
22248;SDS011;67538;52.180;5.646;2023-11-18T02:08:31;70.50;;;29.33;;
22248;SDS011;67538;52.180;5.646;2023-11-18T02:11:01;75.03;;;28.50;;
22248;SDS011;67538;52.180;5.646;2023-11-18T02:13:37;71.83;;;28.93;;
22248;SDS011;67538;52.180;5.646;2023-11-18T02:16:06;70.93;;;30.27;;
22248;SDS011;67538;52.180;5.646;2023-11-18T02:18:35;77.93;;;30.47;;
22248;SDS011;67538;52.180;5.646;2023-11-18T02:21:06;79.77;;;30.93;;
22248;SDS011;67538;52.180;5.646;2023-11-18T02:23:36;72.93;;;31.47;;
22248;SDS011;67538;52.180;5.646;2023-11-18T02:26:05;77.67;;;32.07;;
22248;SDS011;67538;52.180;5.646;2023-11-18T02:28:32;79.20;;;31.50;;
22248;SDS011;67538;52.180;5.646;2023-11-18T02:31:00;75.57;;;31.07;;
22248;SDS011;67538;52.180;5.646;2023-11-18T02:33:40;75.30;;;30.17;;
22248;SDS011;67538;52.180;5.646;2023-11-18T02:36:18;74.80;;;31.40;;
22248;SDS011;67538;52.180;5.646;2023-11-18T02:38:50;78.63;;;31.47;;
22248;SDS011;67538;52.180;5.646;2023-11-18T02:41:21;74.60;;;30.13;;
22248;SDS011;67538;52.180;5.646;2023-11-18T02:43:49;74.20;;;30.77;;
22248;SDS011;67538;52.180;5.646;2023-11-18T02:46:17;78.33;;;32.47;;
22248;SDS011;67538;52.180;5.646;2023-11-18T02:48:44;72.00;;;30.13;;
22248;SDS011;67538;52.180;5.646;2023-11-18T02:51:11;76.67;;;31.63;;
22248;SDS011;67538;52.180;5.646;2023-11-18T02:53:38;67.17;;;29.23;;
22248;SDS011;67538;52.180;5.646;2023-11-18T02:56:10;70.03;;;30.50;;
22248;SDS011;67538;52.180;5.646;2023-11-18T02:58:38;73.17;;;31.40;;
22248;SDS011;67538;52.180;5.646;2023-11-18T03:01:05;74.47;;;32.23;;
22248;SDS011;67538;52.180;5.646;2023-11-18T03:03:32;72.73;;;31.67;;
22248;SDS011;67538;52.180;5.646;2023-11-18T03:05:59;71.47;;;31.50;;
22248;SDS011;67538;52.180;5.646;2023-11-18T03:08:26;72.57;;;31.27;;
22248;SDS011;67538;52.180;5.646;2023-11-18T03:10:55;67.73;;;30.87;;
22248;SDS011;67538;52.180;5.646;2023-11-18T03:13:23;74.37;;;32.53;;
22248;SDS011;67538;52.180;5.646;2023-11-18T03:15:51;71.73;;;31.10;;
22248;SDS011;67538;52.180;5.646;2023-11-18T03:18:18;62.73;;;28.73;;
22248;SDS011;67538;52.180;5.646;2023-11-18T03:20:46;76.60;;;31.67;;
22248;SDS011;67538;52.180;5.646;2023-11-18T03:23:14;76.03;;;31.33;;
22248;SDS011;67538;52.180;5.646;2023-11-18T03:25:41;76.43;;;30.90;;
22248;SDS011;67538;52.180;5.646;2023-11-18T03:28:09;79.80;;;33.33;;
22248;SDS011;67538;52.180;5.646;2023-11-18T03:30:35;73.70;;;31.43;;
22248;SDS011;67538;52.180;5.646;2023-11-18T03:33:04;67.77;;;30.67;;
22248;SDS011;67538;52.180;5.646;2023-11-18T03:35:36;74.63;;;31.40;;
22248;SDS011;67538;52.180;5.646;2023-11-18T03:38:03;64.83;;;29.10;;
22248;SDS011;67538;52.180;5.646;2023-11-18T03:40:30;77.63;;;31.27;;
22248;SDS011;67538;52.180;5.646;2023-11-18T03:43:00;77.70;;;31.37;;
22248;SDS011;67538;52.180;5.646;2023-11-18T03:45:29;77.37;;;30.00;;
22248;SDS011;67538;52.180;5.646;2023-11-18T03:47:56;71.43;;;30.83;;
22248;SDS011;67538;52.180;5.646;2023-11-18T03:50:24;75.97;;;31.33;;
22248;SDS011;67538;52.180;5.646;2023-11-18T03:52:51;84.30;;;31.00;;
22248;SDS011;67538;52.180;5.646;2023-11-18T03:55:18;80.90;;;30.50;;
22248;SDS011;67538;52.180;5.646;2023-11-18T03:57:45;73.37;;;31.73;;
22248;SDS011;67538;52.180;5.646;2023-11-18T04:00:15;77.07;;;30.87;;
22248;SDS011;67538;52.180;5.646;2023-11-18T04:02:42;71.90;;;31.80;;
22248;SDS011;67538;52.180;5.646;2023-11-18T04:05:11;73.87;;;30.97;;
22248;SDS011;67538;52.180;5.646;2023-11-18T04:07:39;76.43;;;30.43;;
22248;SDS011;67538;52.180;5.646;2023-11-18T04:10:07;74.20;;;30.60;;
22248;SDS011;67538;52.180;5.646;2023-11-18T04:12:35;82.70;;;32.23;;
22248;SDS011;67538;52.180;5.646;2023-11-18T04:15:03;86.37;;;32.33;;
22248;SDS011;67538;52.180;5.646;2023-11-18T04:17:31;84.00;;;31.40;;
22248;SDS011;67538;52.180;5.646;2023-11-18T04:19:58;75.23;;;31.13;;
22248;SDS011;67538;52.180;5.646;2023-11-18T04:22:25;82.33;;;31.67;;
22248;SDS011;67538;52.180;5.646;2023-11-18T04:24:53;85.70;;;32.47;;
22248;SDS011;67538;52.180;5.646;2023-11-18T04:27:20;89.13;;;33.07;;
22248;SDS011;67538;52.180;5.646;2023-11-18T04:29:47;90.93;;;31.20;;
22248;SDS011;67538;52.180;5.646;2023-11-18T04:32:14;92.87;;;33.27;;
22248;SDS011;67538;52.180;5.646;2023-11-18T04:34:41;93.63;;;33.70;;
22248;SDS011;67538;52.180;5.646;2023-11-18T04:37:08;97.63;;;34.83;;
22248;SDS011;67538;52.180;5.646;2023-11-18T04:39:35;95.43;;;32.03;;
22248;SDS011;67538;52.180;5.646;2023-11-18T04:42:04;99.07;;;34.37;;
22248;SDS011;67538;52.180;5.646;2023-11-18T04:44:32;100.03;;;33.83;;
22248;SDS011;67538;52.180;5.646;2023-11-18T04:46:59;99.97;;;34.17;;
22248;SDS011;67538;52.180;5.646;2023-11-18T04:49:26;95.47;;;34.03;;
22248;SDS011;67538;52.180;5.646;2023-11-18T04:51:53;107.53;;;34.57;;
22248;SDS011;67538;52.180;5.646;2023-11-18T04:54:20;99.37;;;35.30;;
22248;SDS011;67538;52.180;5.646;2023-11-18T04:56:47;107.13;;;34.30;;
22248;SDS011;67538;52.180;5.646;2023-11-18T04:59:15;96.33;;;33.73;;
22248;SDS011;67538;52.180;5.646;2023-11-18T05:01:43;101.50;;;32.93;;
22248;SDS011;67538;52.180;5.646;2023-11-18T05:04:10;95.17;;;34.47;;
22248;SDS011;67538;52.180;5.646;2023-11-18T05:06:37;99.57;;;34.33;;
22248;SDS011;67538;52.180;5.646;2023-11-18T05:09:04;99.43;;;34.50;;
22248;SDS011;67538;52.180;5.646;2023-11-18T05:11:32;103.40;;;34.57;;
22248;SDS011;67538;52.180;5.646;2023-11-18T05:14:00;95.83;;;33.53;;
22248;SDS011;67538;52.180;5.646;2023-11-18T05:16:29;113.20;;;36.80;;
22248;SDS011;67538;52.180;5.646;2023-11-18T05:18:57;99.60;;;33.27;;
22248;SDS011;67538;52.180;5.646;2023-11-18T05:21:24;99.93;;;34.13;;
22248;SDS011;67538;52.180;5.646;2023-11-18T05:23:51;93.77;;;35.17;;
22248;SDS011;67538;52.180;5.646;2023-11-18T05:26:18;92.10;;;34.17;;
22248;SDS011;67538;52.180;5.646;2023-11-18T05:28:45;99.37;;;33.87;;
22248;SDS011;67538;52.180;5.646;2023-11-18T05:31:12;97.37;;;33.83;;
22248;SDS011;67538;52.180;5.646;2023-11-18T05:33:40;110.10;;;34.33;;
22248;SDS011;67538;52.180;5.646;2023-11-18T05:36:08;94.90;;;34.70;;
22248;SDS011;67538;52.180;5.646;2023-11-18T05:38:36;100.80;;;34.27;;
22248;SDS011;67538;52.180;5.646;2023-11-18T05:41:03;95.60;;;33.70;;
22248;SDS011;67538;52.180;5.646;2023-11-18T05:43:41;102.10;;;33.43;;
22248;SDS011;67538;52.180;5.646;2023-11-18T05:46:16;86.73;;;31.53;;
22248;SDS011;67538;52.180;5.646;2023-11-18T05:48:47;109.73;;;34.27;;
22248;SDS011;67538;52.180;5.646;2023-11-18T05:51:18;95.00;;;33.07;;
22248;SDS011;67538;52.180;5.646;2023-11-18T05:53:45;109.67;;;34.30;;
22248;SDS011;67538;52.180;5.646;2023-11-18T05:56:12;106.03;;;35.63;;
22248;SDS011;67538;52.180;5.646;2023-11-18T05:58:41;90.17;;;32.80;;
22248;SDS011;67538;52.180;5.646;2023-11-18T06:01:09;101.63;;;33.40;;
22248;SDS011;67538;52.180;5.646;2023-11-18T06:03:37;97.30;;;32.47;;
22248;SDS011;67538;52.180;5.646;2023-11-18T06:06:06;95.17;;;32.97;;
22248;SDS011;67538;52.180;5.646;2023-11-18T06:08:34;104.40;;;35.13;;
22248;SDS011;67538;52.180;5.646;2023-11-18T06:11:02;90.47;;;32.47;;
22248;SDS011;67538;52.180;5.646;2023-11-18T06:13:38;96.03;;;32.10;;
22248;SDS011;67538;52.180;5.646;2023-11-18T06:16:08;101.23;;;33.67;;
22248;SDS011;67538;52.180;5.646;2023-11-18T06:18:39;81.80;;;31.17;;
22248;SDS011;67538;52.180;5.646;2023-11-18T06:21:09;94.70;;;33.40;;
22248;SDS011;67538;52.180;5.646;2023-11-18T06:23:39;91.50;;;33.50;;
22248;SDS011;67538;52.180;5.646;2023-11-18T06:26:07;99.60;;;34.83;;
22248;SDS011;67538;52.180;5.646;2023-11-18T06:28:35;84.63;;;32.13;;
22248;SDS011;67538;52.180;5.646;2023-11-18T06:31:03;85.37;;;31.93;;
22248;SDS011;67538;52.180;5.646;2023-11-18T06:33:35;99.60;;;32.97;;
22248;SDS011;67538;52.180;5.646;2023-11-18T06:36:05;91.80;;;33.63;;
22248;SDS011;67538;52.180;5.646;2023-11-18T06:38:34;86.17;;;31.83;;
22248;SDS011;67538;52.180;5.646;2023-11-18T06:41:02;83.93;;;31.70;;
22248;SDS011;67538;52.180;5.646;2023-11-18T06:43:30;98.47;;;33.07;;
22248;SDS011;67538;52.180;5.646;2023-11-18T06:46:11;87.93;;;31.20;;
22248;SDS011;67538;52.180;5.646;2023-11-18T06:48:39;73.20;;;31.03;;
22248;SDS011;67538;52.180;5.646;2023-11-18T06:51:06;94.90;;;32.57;;
22248;SDS011;67538;52.180;5.646;2023-11-18T06:53:35;88.60;;;30.97;;
22248;SDS011;67538;52.180;5.646;2023-11-18T06:56:03;90.30;;;34.07;;
22248;SDS011;67538;52.180;5.646;2023-11-18T06:58:30;84.50;;;32.20;;
22248;SDS011;67538;52.180;5.646;2023-11-18T07:00:57;76.07;;;29.17;;
22248;SDS011;67538;52.180;5.646;2023-11-18T07:03:24;79.57;;;33.00;;
22248;SDS011;67538;52.180;5.646;2023-11-18T07:05:52;86.53;;;31.07;;
22248;SDS011;67538;52.180;5.646;2023-11-18T07:08:19;74.57;;;30.90;;
22248;SDS011;67538;52.180;5.646;2023-11-18T07:10:47;89.10;;;32.97;;
22248;SDS011;67538;52.180;5.646;2023-11-18T07:13:15;88.60;;;32.87;;
22248;SDS011;67538;52.180;5.646;2023-11-18T07:15:42;82.03;;;32.27;;
22248;SDS011;67538;52.180;5.646;2023-11-18T07:18:10;86.17;;;33.20;;
22248;SDS011;67538;52.180;5.646;2023-11-18T07:20:38;85.33;;;31.80;;
22248;SDS011;67538;52.180;5.646;2023-11-18T07:23:05;87.43;;;32.10;;
22248;SDS011;67538;52.180;5.646;2023-11-18T07:25:33;84.77;;;33.37;;
22248;SDS011;67538;52.180;5.646;2023-11-18T07:28:02;77.73;;;33.00;;
22248;SDS011;67538;52.180;5.646;2023-11-18T07:30:30;88.47;;;33.43;;
22248;SDS011;67538;52.180;5.646;2023-11-18T07:32:57;76.33;;;33.13;;
22248;SDS011;67538;52.180;5.646;2023-11-18T07:35:26;82.50;;;33.23;;
22248;SDS011;67538;52.180;5.646;2023-11-18T07:37:54;84.37;;;33.20;;
22248;SDS011;67538;52.180;5.646;2023-11-18T07:40:21;82.23;;;32.97;;
22248;SDS011;67538;52.180;5.646;2023-11-18T07:42:53;74.53;;;32.73;;
22248;SDS011;67538;52.180;5.646;2023-11-18T07:45:22;73.70;;;32.37;;
22248;SDS011;67538;52.180;5.646;2023-11-18T07:47:49;78.37;;;31.57;;
22248;SDS011;67538;52.180;5.646;2023-11-18T07:50:17;79.87;;;32.07;;
22248;SDS011;67538;52.180;5.646;2023-11-18T07:52:45;83.70;;;32.73;;
22248;SDS011;67538;52.180;5.646;2023-11-18T07:55:12;77.60;;;32.30;;
22248;SDS011;67538;52.180;5.646;2023-11-18T07:57:39;78.40;;;31.23;;
22248;SDS011;67538;52.180;5.646;2023-11-18T08:00:07;72.50;;;31.90;;
22248;SDS011;67538;52.180;5.646;2023-11-18T08:02:36;74.67;;;31.13;;
22248;SDS011;67538;52.180;5.646;2023-11-18T08:05:04;75.00;;;32.90;;
22248;SDS011;67538;52.180;5.646;2023-11-18T08:07:34;79.47;;;31.87;;
22248;SDS011;67538;52.180;5.646;2023-11-18T08:10:01;76.33;;;31.03;;
22248;SDS011;67538;52.180;5.646;2023-11-18T08:12:30;80.40;;;31.83;;
22248;SDS011;67538;52.180;5.646;2023-11-18T08:14:57;73.90;;;30.03;;
22248;SDS011;67538;52.180;5.646;2023-11-18T08:17:24;73.83;;;31.13;;
22248;SDS011;67538;52.180;5.646;2023-11-18T08:19:53;85.80;;;31.37;;
22248;SDS011;67538;52.180;5.646;2023-11-18T08:22:21;65.53;;;29.33;;
22248;SDS011;67538;52.180;5.646;2023-11-18T08:24:48;75.37;;;30.27;;
22248;SDS011;67538;52.180;5.646;2023-11-18T08:27:15;73.37;;;30.33;;
22248;SDS011;67538;52.180;5.646;2023-11-18T08:29:42;73.70;;;30.57;;
22248;SDS011;67538;52.180;5.646;2023-11-18T08:32:11;62.57;;;28.50;;
22248;SDS011;67538;52.180;5.646;2023-11-18T08:34:38;78.87;;;29.43;;
22248;SDS011;67538;52.180;5.646;2023-11-18T08:37:07;71.90;;;29.97;;
22248;SDS011;67538;52.180;5.646;2023-11-18T08:39:34;68.77;;;29.37;;
22248;SDS011;67538;52.180;5.646;2023-11-18T08:42:01;65.87;;;28.83;;
22248;SDS011;67538;52.180;5.646;2023-11-18T08:44:29;66.23;;;28.20;;
22248;SDS011;67538;52.180;5.646;2023-11-18T08:46:57;67.17;;;27.93;;
22248;SDS011;67538;52.180;5.646;2023-11-18T08:49:24;71.70;;;27.93;;
22248;SDS011;67538;52.180;5.646;2023-11-18T08:51:54;74.93;;;29.63;;
22248;SDS011;67538;52.180;5.646;2023-11-18T08:54:24;73.60;;;29.73;;
22248;SDS011;67538;52.180;5.646;2023-11-18T08:57:01;64.13;;;28.73;;
22248;SDS011;67538;52.180;5.646;2023-11-18T08:59:29;64.53;;;27.57;;
22248;SDS011;67538;52.180;5.646;2023-11-18T09:01:56;65.37;;;27.47;;
22248;SDS011;67538;52.180;5.646;2023-11-18T09:04:24;70.20;;;27.30;;
22248;SDS011;67538;52.180;5.646;2023-11-18T09:06:52;55.43;;;25.50;;
22248;SDS011;67538;52.180;5.646;2023-11-18T09:09:26;72.83;;;27.47;;
22248;SDS011;67538;52.180;5.646;2023-11-18T09:11:53;67.50;;;27.23;;
22248;SDS011;67538;52.180;5.646;2023-11-18T09:14:21;64.33;;;26.57;;
22248;SDS011;67538;52.180;5.646;2023-11-18T09:16:50;62.77;;;25.67;;
22248;SDS011;67538;52.180;5.646;2023-11-18T09:19:20;60.23;;;24.53;;
22248;SDS011;67538;52.180;5.646;2023-11-18T09:21:47;54.93;;;25.13;;
22248;SDS011;67538;52.180;5.646;2023-11-18T09:24:14;62.90;;;23.57;;
22248;SDS011;67538;52.180;5.646;2023-11-18T09:26:46;60.40;;;23.13;;
22248;SDS011;67538;52.180;5.646;2023-11-18T09:29:15;53.47;;;23.23;;
22248;SDS011;67538;52.180;5.646;2023-11-18T09:31:43;50.90;;;21.17;;
22248;SDS011;67538;52.180;5.646;2023-11-18T09:34:13;56.13;;;22.40;;
22248;SDS011;67538;52.180;5.646;2023-11-18T09:36:42;55.83;;;22.50;;
22248;SDS011;67538;52.180;5.646;2023-11-18T09:39:09;44.73;;;22.20;;
22248;SDS011;67538;52.180;5.646;2023-11-18T09:41:55;46.13;;;21.50;;
22248;SDS011;67538;52.180;5.646;2023-11-18T09:44:22;53.57;;;21.73;;
22248;SDS011;67538;52.180;5.646;2023-11-18T09:46:52;51.70;;;21.50;;
22248;SDS011;67538;52.180;5.646;2023-11-18T09:49:29;45.67;;;20.83;;
22248;SDS011;67538;52.180;5.646;2023-11-18T09:52:04;45.43;;;19.70;;
22248;SDS011;67538;52.180;5.646;2023-11-18T09:54:34;49.80;;;19.00;;
22248;SDS011;67538;52.180;5.646;2023-11-18T09:57:08;50.47;;;18.63;;
22248;SDS011;67538;52.180;5.646;2023-11-18T09:59:42;48.80;;;20.23;;
22248;SDS011;67538;52.180;5.646;2023-11-18T10:02:13;52.60;;;20.13;;
22248;SDS011;67538;52.180;5.646;2023-11-18T10:04:43;59.33;;;25.17;;
22248;SDS011;67538;52.180;5.646;2023-11-18T10:07:11;60.60;;;25.50;;
22248;SDS011;67538;52.180;5.646;2023-11-18T10:09:41;42.30;;;17.73;;
22248;SDS011;67538;52.180;5.646;2023-11-18T10:12:10;43.70;;;18.30;;
22248;SDS011;67538;52.180;5.646;2023-11-18T10:14:42;41.17;;;17.17;;
22248;SDS011;67538;52.180;5.646;2023-11-18T10:17:09;43.27;;;17.20;;
22248;SDS011;67538;52.180;5.646;2023-11-18T10:19:52;46.40;;;17.83;;
22248;SDS011;67538;52.180;5.646;2023-11-18T10:22:22;43.27;;;16.93;;
22248;SDS011;67538;52.180;5.646;2023-11-18T10:24:50;38.40;;;17.43;;
22248;SDS011;67538;52.180;5.646;2023-11-18T10:27:21;41.53;;;17.23;;
22248;SDS011;67538;52.180;5.646;2023-11-18T10:29:50;38.77;;;17.10;;
22248;SDS011;67538;52.180;5.646;2023-11-18T10:32:21;39.60;;;17.20;;
22248;SDS011;67538;52.180;5.646;2023-11-18T10:34:53;38.87;;;16.13;;
22248;SDS011;67538;52.180;5.646;2023-11-18T10:37:21;42.93;;;17.53;;
22248;SDS011;67538;52.180;5.646;2023-11-18T10:39:49;39.17;;;18.47;;
22248;SDS011;67538;52.180;5.646;2023-11-18T10:42:16;43.47;;;17.23;;
22248;SDS011;67538;52.180;5.646;2023-11-18T10:44:58;40.93;;;16.23;;
22248;SDS011;67538;52.180;5.646;2023-11-18T10:47:27;36.20;;;16.00;;
22248;SDS011;67538;52.180;5.646;2023-11-18T10:49:54;33.70;;;15.47;;
22248;SDS011;67538;52.180;5.646;2023-11-18T10:52:22;32.37;;;15.93;;
22248;SDS011;67538;52.180;5.646;2023-11-18T10:54:51;40.73;;;16.47;;
22248;SDS011;67538;52.180;5.646;2023-11-18T10:57:19;40.50;;;15.90;;
22248;SDS011;67538;52.180;5.646;2023-11-18T11:00:01;44.47;;;16.77;;
22248;SDS011;67538;52.180;5.646;2023-11-18T11:02:38;39.00;;;16.23;;
22248;SDS011;67538;52.180;5.646;2023-11-18T11:05:06;43.63;;;16.13;;
22248;SDS011;67538;52.180;5.646;2023-11-18T11:07:40;38.00;;;15.60;;
22248;SDS011;67538;52.180;5.646;2023-11-18T11:10:09;37.83;;;15.90;;
22248;SDS011;67538;52.180;5.646;2023-11-18T11:12:41;41.53;;;15.03;;
22248;SDS011;67538;52.180;5.646;2023-11-18T11:15:20;35.97;;;14.63;;
22248;SDS011;67538;52.180;5.646;2023-11-18T11:17:53;40.27;;;14.73;;
22248;SDS011;67538;52.180;5.646;2023-11-18T11:20:27;30.73;;;13.97;;
22248;SDS011;67538;52.180;5.646;2023-11-18T11:23:04;34.90;;;14.27;;
22248;SDS011;67538;52.180;5.646;2023-11-18T11:25:38;40.13;;;15.90;;
22248;SDS011;67538;52.180;5.646;2023-11-18T11:28:11;35.97;;;14.77;;
22248;SDS011;67538;52.180;5.646;2023-11-18T11:30:46;31.40;;;14.67;;
22248;SDS011;67538;52.180;5.646;2023-11-18T11:33:23;37.07;;;14.53;;
22248;SDS011;67538;52.180;5.646;2023-11-18T11:35:57;35.77;;;14.20;;
22248;SDS011;67538;52.180;5.646;2023-11-18T11:38:29;31.63;;;14.47;;
22248;SDS011;67538;52.180;5.646;2023-11-18T11:40:57;36.90;;;14.37;;
22248;SDS011;67538;52.180;5.646;2023-11-18T11:43:29;42.93;;;14.37;;
22248;SDS011;67538;52.180;5.646;2023-11-18T11:46:01;26.10;;;12.90;;
22248;SDS011;67538;52.180;5.646;2023-11-18T11:48:35;36.67;;;13.37;;
22248;SDS011;67538;52.180;5.646;2023-11-18T11:51:07;31.40;;;13.57;;
22248;SDS011;67538;52.180;5.646;2023-11-18T11:53:47;34.97;;;13.17;;
22248;SDS011;67538;52.180;5.646;2023-11-18T11:56:18;31.57;;;13.13;;
22248;SDS011;67538;52.180;5.646;2023-11-18T11:58:49;33.50;;;13.17;;
22248;SDS011;67538;52.180;5.646;2023-11-18T12:01:24;26.37;;;12.50;;
22248;SDS011;67538;52.180;5.646;2023-11-18T12:03:57;27.27;;;12.70;;
22248;SDS011;67538;52.180;5.646;2023-11-18T12:06:31;26.10;;;12.47;;
22248;SDS011;67538;52.180;5.646;2023-11-18T12:09:00;30.83;;;11.73;;
22248;SDS011;67538;52.180;5.646;2023-11-18T12:11:32;21.83;;;11.53;;
22248;SDS011;67538;52.180;5.646;2023-11-18T12:14:04;23.90;;;12.03;;
22248;SDS011;67538;52.180;5.646;2023-11-18T12:19:35;25.43;;;11.57;;
22248;SDS011;67538;52.180;5.646;2023-11-18T12:22:10;29.47;;;11.27;;
22248;SDS011;67538;52.180;5.646;2023-11-18T12:24:44;30.77;;;12.27;;
22248;SDS011;67538;52.180;5.646;2023-11-18T12:33:08;23.53;;;10.27;;
22248;SDS011;67538;52.180;5.646;2023-11-18T12:35:37;23.90;;;11.07;;
22248;SDS011;67538;52.180;5.646;2023-11-18T12:38:30;25.63;;;12.13;;
22248;SDS011;67538;52.180;5.646;2023-11-18T12:41:27;26.80;;;10.87;;
22248;SDS011;67538;52.180;5.646;2023-11-18T12:44:10;24.23;;;10.63;;
22248;SDS011;67538;52.180;5.646;2023-11-18T12:46:52;23.97;;;9.97;;
22248;SDS011;67538;52.180;5.646;2023-11-18T12:49:22;24.67;;;10.37;;
22248;SDS011;67538;52.180;5.646;2023-11-18T12:51:50;24.83;;;10.40;;
22248;SDS011;67538;52.180;5.646;2023-11-18T12:54:18;19.67;;;9.53;;
22248;SDS011;67538;52.180;5.646;2023-11-18T12:56:47;23.53;;;9.63;;
22248;SDS011;67538;52.180;5.646;2023-11-18T12:59:15;23.60;;;9.07;;
22248;SDS011;67538;52.180;5.646;2023-11-18T13:01:44;22.33;;;9.87;;
22248;SDS011;67538;52.180;5.646;2023-11-18T13:04:19;20.77;;;9.40;;
22248;SDS011;67538;52.180;5.646;2023-11-18T13:06:49;19.30;;;9.10;;
22248;SDS011;67538;52.180;5.646;2023-11-18T13:09:16;18.13;;;9.17;;
22248;SDS011;67538;52.180;5.646;2023-11-18T13:11:52;22.43;;;9.47;;
22248;SDS011;67538;52.180;5.646;2023-11-18T13:14:21;16.70;;;8.67;;
22248;SDS011;67538;52.180;5.646;2023-11-18T13:16:50;18.10;;;8.47;;
22248;SDS011;67538;52.180;5.646;2023-11-18T13:19:26;16.10;;;8.17;;
22248;SDS011;67538;52.180;5.646;2023-11-18T13:21:57;17.03;;;8.50;;
22248;SDS011;67538;52.180;5.646;2023-11-18T13:24:25;13.93;;;8.17;;
22248;SDS011;67538;52.180;5.646;2023-11-18T13:26:53;18.10;;;7.93;;
22248;SDS011;67538;52.180;5.646;2023-11-18T13:29:22;15.43;;;8.37;;
22248;SDS011;67538;52.180;5.646;2023-11-18T13:31:49;16.20;;;7.43;;
22248;SDS011;67538;52.180;5.646;2023-11-18T13:34:17;18.57;;;8.33;;
22248;SDS011;67538;52.180;5.646;2023-11-18T13:36:46;18.23;;;7.47;;
22248;SDS011;67538;52.180;5.646;2023-11-18T13:39:17;12.93;;;6.80;;
22248;SDS011;67538;52.180;5.646;2023-11-18T13:41:44;18.30;;;7.20;;
22248;SDS011;67538;52.180;5.646;2023-11-18T13:47:04;16.33;;;7.27;;
22248;SDS011;67538;52.180;5.646;2023-11-18T13:49:31;15.20;;;6.30;;
22248;SDS011;67538;52.180;5.646;2023-11-18T13:52:01;14.93;;;6.43;;
22248;SDS011;67538;52.180;5.646;2023-11-18T13:54:28;10.07;;;6.30;;
22248;SDS011;67538;52.180;5.646;2023-11-18T13:56:57;8.93;;;5.83;;
22248;SDS011;67538;52.180;5.646;2023-11-18T13:59:25;8.73;;;5.57;;
22248;SDS011;67538;52.180;5.646;2023-11-18T14:01:52;13.23;;;6.47;;
22248;SDS011;67538;52.180;5.646;2023-11-18T14:04:22;13.13;;;5.97;;
22248;SDS011;67538;52.180;5.646;2023-11-18T14:06:52;12.83;;;5.97;;
22248;SDS011;67538;52.180;5.646;2023-11-18T14:09:24;8.53;;;5.70;;
22248;SDS011;67538;52.180;5.646;2023-11-18T14:11:52;11.33;;;6.23;;
22248;SDS011;67538;52.180;5.646;2023-11-18T14:14:20;13.03;;;6.20;;
22248;SDS011;67538;52.180;5.646;2023-11-18T14:16:47;8.97;;;5.07;;
22248;SDS011;67538;52.180;5.646;2023-11-18T14:19:14;9.23;;;5.20;;
22248;SDS011;67538;52.180;5.646;2023-11-18T14:21:43;7.30;;;4.97;;
22248;SDS011;67538;52.180;5.646;2023-11-18T14:24:10;7.60;;;4.60;;
22248;SDS011;67538;52.180;5.646;2023-11-18T14:26:39;7.33;;;5.00;;
22248;SDS011;67538;52.180;5.646;2023-11-18T14:29:06;10.03;;;4.80;;
22248;SDS011;67538;52.180;5.646;2023-11-18T14:31:33;11.63;;;5.10;;
22248;SDS011;67538;52.180;5.646;2023-11-18T14:34:00;6.13;;;4.27;;
22248;SDS011;67538;52.180;5.646;2023-11-18T14:36:28;11.67;;;4.80;;
22248;SDS011;67538;52.180;5.646;2023-11-18T14:38:56;11.13;;;4.03;;
22248;SDS011;67538;52.180;5.646;2023-11-18T14:41:23;4.73;;;3.90;;
22248;SDS011;67538;52.180;5.646;2023-11-18T14:43:53;6.67;;;3.80;;
22248;SDS011;67538;52.180;5.646;2023-11-18T14:46:20;6.20;;;3.60;;